createdAt,value
2023-04-05T00:04:06.119Z,-2.99
2023-04-05T00:14:13.165Z,-2.83
2023-04-05T00:24:20.865Z,-2.70
2023-04-05T00:34:27.923Z,-2.62
2023-04-05T00:44:36.205Z,-2.66
2023-04-05T00:54:43.894Z,-2.72
2023-04-05T01:05:01.152Z,-2.87
2023-04-05T01:15:10.793Z,-2.95
2023-04-05T01:25:24.117Z,-2.97
2023-04-05T01:35:29.896Z,-2.87
2023-04-05T01:45:37.157Z,-2.99
2023-04-05T01:55:44.331Z,-3.07
2023-04-05T02:05:51.861Z,-3.17
2023-04-05T02:15:59.000Z,-3.33
2023-04-05T02:26:05.800Z,-3.51
2023-04-05T02:36:13.526Z,-3.73
2023-04-05T02:46:20.982Z,-3.92
2023-04-05T02:56:28.107Z,-4.08
2023-04-05T03:06:35.404Z,-4.16
2023-04-05T03:16:43.026Z,-4.15
2023-04-05T03:26:51.769Z,-4.09
2023-04-05T03:36:59.127Z,-3.94
2023-04-05T03:47:06.352Z,-3.85
2023-04-05T03:57:13.440Z,-3.87
2023-04-05T04:07:19.102Z,-3.94
2023-04-05T04:17:34.993Z,-4.08
2023-04-05T04:27:43.905Z,-4.18
2023-04-05T04:37:53.093Z,-4.24
2023-04-05T04:48:00.184Z,-4.22
2023-04-05T04:58:10.408Z,-4.01
2023-04-05T05:08:21.117Z,-3.40
2023-04-05T05:18:27.530Z,-2.44
2023-04-05T05:28:34.787Z,-0.76
2023-04-05T05:38:43.302Z,0.76
2023-04-05T05:48:50.798Z,1.83
2023-04-05T05:58:59.618Z,2.84
2023-04-05T06:09:06.738Z,3.85
2023-04-05T06:19:13.973Z,4.58
2023-04-05T06:29:20.146Z,5.16
2023-04-05T06:39:27.224Z,5.23
2023-04-05T06:49:34.510Z,5.19
2023-04-05T06:59:42.114Z,5.43
2023-04-05T07:09:49.096Z,5.50
2023-04-05T07:19:56.559Z,4.77
2023-04-05T07:30:03.734Z,4.50
2023-04-05T07:40:12.688Z,4.32
2023-04-05T07:50:20.091Z,3.48
2023-04-05T08:00:24.792Z,3.78
2023-04-05T08:10:32.095Z,4.08
2023-04-05T08:20:41.704Z,4.08
2023-04-05T08:30:49.367Z,4.22
2023-04-05T08:40:56.497Z,4.86
2023-04-05T08:51:03.962Z,4.38
2023-04-05T09:01:11.663Z,3.82
2023-04-05T09:11:20.119Z,3.77
2023-04-05T09:21:29.533Z,4.08
2023-04-05T09:31:34.346Z,4.29
2023-04-05T09:41:42.057Z,4.45
2023-04-05T09:51:50.150Z,4.57
2023-04-05T10:01:57.268Z,4.93
2023-04-05T10:12:05.099Z,4.87
2023-04-05T10:22:15.134Z,4.64
2023-04-05T10:32:29.064Z,4.57
2023-04-05T10:42:41.187Z,4.49
2023-04-05T10:52:49.816Z,5.11
2023-04-05T11:02:55.156Z,5.41
2023-04-05T11:13:17.866Z,5.17
2023-04-05T11:23:27.253Z,6.36
2023-04-05T11:33:41.084Z,5.83
2023-04-05T11:43:47.849Z,5.35
2023-04-05T11:53:55.028Z,4.91
2023-04-05T12:04:02.262Z,5.42
2023-04-05T12:14:09.711Z,5.79
2023-04-05T12:24:17.172Z,5.08
2023-04-05T12:34:27.737Z,4.44
2023-04-05T12:44:36.783Z,4.65
2023-04-05T12:54:42.523Z,5.14
2023-04-05T13:04:51.273Z,5.80
2023-04-05T13:14:58.307Z,5.74
2023-04-05T13:25:06.049Z,5.16
2023-04-05T13:35:11.548Z,5.18
2023-04-05T13:45:18.595Z,5.69
2023-04-05T13:55:25.667Z,5.84
2023-04-05T14:05:32.797Z,5.62
2023-04-05T14:15:40.518Z,5.59
2023-04-05T14:25:47.825Z,5.92
2023-04-05T14:35:55.116Z,6.14
2023-04-05T14:46:02.595Z,5.98
2023-04-05T14:56:10.131Z,6.07
2023-04-05T15:06:16.680Z,5.99
2023-04-05T15:16:26.007Z,5.71
2023-04-05T15:26:33.464Z,5.37
2023-04-05T15:36:40.853Z,5.11
2023-04-05T15:46:48.476Z,4.94
2023-04-05T15:56:56.926Z,4.76
2023-04-05T16:07:04.450Z,4.34
2023-04-05T16:17:12.206Z,4.24
2023-04-05T16:27:19.829Z,4.13
2023-04-05T16:37:26.987Z,3.93
2023-04-05T16:47:33.208Z,3.84
2023-04-05T16:57:40.557Z,3.78
2023-04-05T17:07:47.414Z,3.62
2023-04-05T17:17:54.497Z,3.35
2023-04-05T17:28:03.297Z,3.05
2023-04-05T17:38:10.926Z,2.74
2023-04-05T17:48:19.209Z,2.38
2023-04-05T17:58:29.104Z,2.00
2023-04-05T18:08:36.597Z,1.68
2023-04-05T18:18:43.825Z,1.30
2023-04-05T18:39:03.950Z,0.90
2023-04-05T18:49:11.650Z,0.78
2023-04-05T18:59:18.876Z,0.50
2023-04-05T19:09:25.631Z,0.18
2023-04-05T19:19:32.889Z,-0.11
2023-04-05T19:29:40.773Z,-0.36
2023-04-05T19:39:48.533Z,-0.56
2023-04-05T19:49:56.285Z,-0.72
2023-04-05T20:00:03.704Z,-0.90
2023-04-05T20:10:15.588Z,-1.07
2023-04-05T20:20:21.965Z,-1.22
2023-04-05T20:30:29.062Z,-1.26
2023-04-05T20:40:36.403Z,-1.23
2023-04-05T20:50:42.232Z,-1.28
2023-04-05T21:00:49.546Z,-1.41
2023-04-05T21:10:57.185Z,-1.62
2023-04-05T21:21:04.460Z,-1.83
2023-04-05T21:31:11.207Z,-1.86
2023-04-05T21:41:18.410Z,-1.62
2023-04-05T21:51:25.810Z,-1.34
2023-04-05T22:01:33.381Z,-1.19
2023-04-05T22:11:40.361Z,-1.15
2023-04-05T22:21:47.828Z,-1.15
2023-04-05T22:31:54.506Z,-1.21
2023-04-05T22:42:01.967Z,-1.29
2023-04-05T22:52:09.007Z,-1.41
2023-04-05T23:02:16.413Z,-1.58
2023-04-05T23:12:23.930Z,-1.82
2023-04-05T23:22:31.182Z,-2.00
2023-04-05T23:32:38.173Z,-2.03
2023-04-05T23:42:45.500Z,-2.07
2023-04-05T23:52:52.556Z,-2.24
